createdAt,value
2023-05-22T00:00:13.888Z,18.74
2023-05-22T00:02:43.980Z,19.49
2023-05-22T00:05:18.320Z,19.89
2023-05-22T00:07:47.053Z,19.77
2023-05-22T00:10:15.697Z,19.29
2023-05-22T00:12:44.305Z,19.34
2023-05-22T00:15:13.485Z,19.33
2023-05-22T00:17:42.316Z,19.67
2023-05-22T00:20:11.700Z,19.30
2023-05-22T00:22:42.353Z,18.98
2023-05-22T00:25:12.332Z,19.03
2023-05-22T00:27:40.933Z,20.08
2023-05-22T00:30:10.580Z,21.14
2023-05-22T00:32:40.717Z,21.85
2023-05-22T00:35:10.686Z,21.97
2023-05-22T00:37:40.643Z,22.34
2023-05-22T00:40:10.668Z,22.55
2023-05-22T00:42:39.393Z,22.75
2023-05-22T00:45:09.086Z,22.61
2023-05-22T00:47:37.784Z,22.71
2023-05-22T00:50:07.270Z,22.76
2023-05-22T00:52:38.665Z,22.77
2023-05-22T00:55:10.420Z,22.78
2023-05-22T00:57:42.027Z,21.50
2023-05-22T01:00:12.145Z,22.09
2023-05-22T01:02:43.100Z,22.41
2023-05-22T01:05:18.176Z,22.34
2023-05-22T01:07:47.146Z,20.93
2023-05-22T01:10:17.079Z,21.72
2023-05-22T01:12:56.476Z,21.84
2023-05-22T01:15:33.111Z,21.76
2023-05-22T01:18:11.310Z,21.64
2023-05-22T01:20:48.976Z,21.28
2023-05-22T01:23:54.295Z,20.94
2023-05-22T01:26:47.330Z,20.68
2023-05-22T01:29:40.075Z,20.78
2023-05-22T01:32:14.238Z,21.50
2023-05-22T01:34:47.732Z,21.78
2023-05-22T01:37:17.726Z,21.99
2023-05-22T01:39:47.326Z,21.46
2023-05-22T01:42:16.157Z,20.73
2023-05-22T01:44:44.869Z,21.42
2023-05-22T01:47:15.110Z,21.49
2023-05-22T01:49:44.204Z,21.74
2023-05-22T01:52:20.544Z,21.76
2023-05-22T01:54:54.863Z,22.10
2023-05-22T01:57:29.678Z,22.27
2023-05-22T02:00:09.958Z,22.39
2023-05-22T02:02:43.333Z,22.43
2023-05-22T02:05:13.752Z,22.43
2023-05-22T02:07:44.489Z,22.46
2023-05-22T02:10:14.491Z,22.43
2023-05-22T02:12:43.248Z,22.45
2023-05-22T02:15:12.278Z,22.42
2023-05-22T02:17:42.648Z,22.37
2023-05-22T02:20:14.574Z,22.27
2023-05-22T02:22:44.556Z,22.29
2023-05-22T02:25:14.650Z,22.31
2023-05-22T02:27:44.153Z,22.30
2023-05-22T02:30:13.791Z,22.20
2023-05-22T02:32:44.095Z,22.22
2023-05-22T02:35:12.789Z,22.32
2023-05-22T02:37:42.304Z,22.30
2023-05-22T02:40:11.766Z,22.26
2023-05-22T02:42:40.355Z,22.25
2023-05-22T02:45:10.181Z,22.28
2023-05-22T02:47:38.802Z,22.22
2023-05-22T02:50:09.755Z,22.20
2023-05-22T02:52:39.363Z,22.21
2023-05-22T02:55:09.040Z,22.23
2023-05-22T02:57:37.890Z,22.23
2023-05-22T03:00:07.965Z,22.11
2023-05-22T03:02:36.702Z,22.18
2023-05-22T03:05:05.884Z,22.16
2023-05-22T03:07:35.887Z,22.18
2023-05-22T03:10:04.694Z,22.02
2023-05-22T03:12:33.380Z,21.79
2023-05-22T03:15:01.962Z,22.00
2023-05-22T03:17:30.584Z,22.06
2023-05-22T03:19:59.207Z,22.00
2023-05-22T03:22:27.727Z,22.04
2023-05-22T03:24:57.643Z,22.06
2023-05-22T03:27:26.250Z,22.08
2023-05-22T03:29:54.833Z,22.04
2023-05-22T03:32:23.494Z,22.10
2023-05-22T03:34:52.095Z,22.08
2023-05-22T03:37:20.720Z,22.07
2023-05-22T03:39:49.295Z,22.06
2023-05-22T03:42:19.221Z,22.04
2023-05-22T03:44:49.331Z,22.01
2023-05-22T03:47:18.098Z,22.01
2023-05-22T03:49:47.012Z,21.99
2023-05-22T03:52:15.699Z,21.96
2023-05-22T03:54:44.220Z,21.99
2023-05-22T03:57:12.778Z,21.99
2023-05-22T03:59:42.703Z,22.00
2023-05-22T04:02:13.003Z,21.98
2023-05-22T04:04:41.713Z,21.94
2023-05-22T04:07:13.322Z,21.98
2023-05-22T04:09:42.347Z,21.96
2023-05-22T04:12:11.486Z,21.96
2023-05-22T04:14:41.495Z,21.99
2023-05-22T04:17:11.650Z,21.96
2023-05-22T04:19:40.218Z,21.96
2023-05-22T04:22:08.753Z,21.98
2023-05-22T04:24:39.846Z,22.00
2023-05-22T04:27:08.452Z,22.03
2023-05-22T04:29:37.462Z,22.04
2023-05-22T04:32:10.574Z,22.04
2023-05-22T04:34:39.220Z,22.11
2023-05-22T04:37:07.832Z,22.09
2023-05-22T04:39:36.399Z,22.12
2023-05-22T04:42:05.984Z,22.11
2023-05-22T04:44:35.331Z,22.13
2023-05-22T04:47:08.226Z,22.13
2023-05-22T04:49:38.520Z,22.14
2023-05-22T04:52:07.729Z,22.19
2023-05-22T04:54:36.482Z,22.20
2023-05-22T04:57:05.539Z,21.95
2023-05-22T04:59:37.963Z,22.06
2023-05-22T05:02:06.891Z,22.21
2023-05-22T05:04:37.307Z,22.19
2023-05-22T05:07:07.076Z,22.25
2023-05-22T05:09:35.689Z,22.25
2023-05-22T05:12:04.735Z,22.32
2023-05-22T05:14:35.066Z,22.09
2023-05-22T05:17:04.690Z,22.29
2023-05-22T05:19:36.235Z,22.35
2023-05-22T05:22:07.201Z,22.40
2023-05-22T05:24:35.805Z,22.40
2023-05-22T05:27:04.753Z,22.46
2023-05-22T05:29:33.293Z,22.42
2023-05-22T05:32:01.929Z,22.40
2023-05-22T05:34:30.530Z,22.49
2023-05-22T05:36:59.612Z,22.59
2023-05-22T05:39:29.608Z,22.67
2023-05-22T05:41:58.335Z,22.54
2023-05-22T05:44:26.921Z,22.75
2023-05-22T05:46:55.849Z,22.86
2023-05-22T05:49:24.471Z,22.76
2023-05-22T05:51:52.968Z,23.30
2023-05-22T05:54:21.788Z,24.10
2023-05-22T05:56:51.413Z,23.83
2023-05-22T05:59:19.734Z,24.68
2023-05-22T06:01:48.280Z,24.26
2023-05-22T06:04:16.637Z,24.12
2023-05-22T06:06:44.869Z,23.73
2023-05-22T06:09:13.153Z,23.69
2023-05-22T06:11:41.388Z,24.17
2023-05-22T06:14:11.145Z,23.84
2023-05-22T06:16:39.417Z,24.89
2023-05-22T06:19:08.014Z,23.70
2023-05-22T06:21:36.375Z,22.69
2023-05-22T06:24:04.970Z,23.90
2023-05-22T06:26:33.439Z,24.95
2023-05-22T06:29:01.722Z,25.12
2023-05-22T06:31:32.161Z,26.06
2023-05-22T06:34:00.485Z,25.40
2023-05-22T06:36:28.944Z,24.99
2023-05-22T06:38:57.180Z,24.82
2023-05-22T06:41:26.210Z,23.91
2023-05-22T06:43:54.458Z,24.41
2023-05-22T06:46:25.784Z,24.00
2023-05-22T06:48:56.086Z,23.51
2023-05-22T06:51:24.516Z,23.36
2023-05-22T06:53:52.931Z,23.22
2023-05-22T06:56:22.842Z,23.86
2023-05-22T06:58:51.116Z,24.23
2023-05-22T07:01:19.506Z,24.79
2023-05-22T07:03:47.768Z,25.77
2023-05-22T07:06:18.383Z,25.55
2023-05-22T07:08:46.759Z,25.13
2023-05-22T07:11:15.030Z,25.10
2023-05-22T07:13:43.290Z,22.99
2023-05-22T07:16:11.547Z,23.21
2023-05-22T07:18:40.445Z,21.65
2023-05-22T07:21:08.746Z,22.51
2023-05-22T07:23:38.376Z,22.88
2023-05-22T07:26:07.902Z,21.65
2023-05-22T07:28:36.202Z,21.45
2023-05-22T07:31:04.507Z,21.65
2023-05-22T07:33:32.877Z,21.86
2023-05-22T07:36:01.114Z,22.04
2023-05-22T07:38:29.445Z,22.32
2023-05-22T07:40:59.041Z,21.90
2023-05-22T07:43:27.349Z,21.69
2023-05-22T07:45:55.655Z,21.30
2023-05-22T07:48:23.939Z,21.16
2023-05-22T07:50:52.185Z,21.27
2023-05-22T07:53:20.864Z,21.44
2023-05-22T07:55:49.227Z,21.18
2023-05-22T07:58:19.707Z,21.23
2023-05-22T08:00:47.965Z,21.64
2023-05-22T08:03:17.538Z,21.78
2023-05-22T08:05:46.555Z,22.36
2023-05-22T08:08:14.934Z,22.20
2023-05-22T08:10:58.264Z,22.25
2023-05-22T08:13:32.846Z,21.84
2023-05-22T08:16:01.567Z,21.92
2023-05-22T08:18:30.702Z,22.15
2023-05-22T08:21:00.295Z,21.97
2023-05-22T08:23:28.638Z,22.03
2023-05-22T08:25:57.233Z,21.94
2023-05-22T08:28:25.639Z,22.26
2023-05-22T08:30:55.472Z,22.40
2023-05-22T08:33:23.791Z,21.84
2023-05-22T08:35:52.067Z,21.11
2023-05-22T08:38:20.912Z,20.82
2023-05-22T08:40:50.569Z,21.78
2023-05-22T08:43:21.290Z,21.30
2023-05-22T08:45:57.962Z,21.69
2023-05-22T08:48:29.978Z,21.86
2023-05-22T08:51:00.246Z,21.74
2023-05-22T08:53:30.547Z,21.71
2023-05-22T08:55:58.950Z,21.24
2023-05-22T08:58:28.330Z,21.16
2023-05-22T09:00:58.384Z,21.24
2023-05-22T09:03:32.975Z,20.84
2023-05-22T09:06:01.710Z,21.03
2023-05-22T09:08:30.086Z,20.38
2023-05-22T09:10:58.406Z,20.92
2023-05-22T09:13:28.489Z,20.91
2023-05-22T09:16:08.508Z,20.86
2023-05-22T09:18:38.258Z,20.80
2023-05-22T09:21:17.746Z,19.76
2023-05-22T09:23:55.531Z,20.74
2023-05-22T09:26:27.841Z,21.43
2023-05-22T09:28:57.121Z,21.47
2023-05-22T09:31:27.675Z,20.97
2023-05-22T09:33:56.987Z,22.27
2023-05-22T09:36:33.477Z,21.39
2023-05-22T09:39:02.463Z,21.79
2023-05-22T09:41:32.191Z,22.12
2023-05-22T09:44:01.934Z,22.04
2023-05-22T09:46:32.056Z,20.89
2023-05-22T09:49:03.263Z,20.18
2023-05-22T09:51:31.844Z,21.34
2023-05-22T09:54:06.726Z,21.06
2023-05-22T09:56:40.149Z,21.20
2023-05-22T09:59:10.874Z,21.53
2023-05-22T10:01:42.675Z,21.95
2023-05-22T10:04:15.017Z,21.73
2023-05-22T10:06:49.806Z,21.72
2023-05-22T10:09:22.573Z,20.79
2023-05-22T10:11:53.651Z,21.14
2023-05-22T10:14:22.222Z,20.93
2023-05-22T10:16:52.653Z,21.18
2023-05-22T10:19:21.177Z,21.43
2023-05-22T10:21:51.244Z,22.25
2023-05-22T10:24:19.858Z,22.39
2023-05-22T10:26:48.664Z,22.27
2023-05-22T10:29:23.310Z,22.73
2023-05-22T10:32:03.985Z,23.66
2023-05-22T10:34:41.529Z,23.89
2023-05-22T10:37:25.722Z,21.77
2023-05-22T10:40:04.674Z,23.06
2023-05-22T10:42:33.369Z,22.59
2023-05-22T10:45:03.194Z,24.03
2023-05-22T10:47:35.273Z,24.07
2023-05-22T10:50:10.132Z,23.79
2023-05-22T10:52:39.558Z,24.07
2023-05-22T10:55:09.693Z,23.73
2023-05-22T10:57:40.316Z,24.61
2023-05-22T11:00:14.167Z,24.52
2023-05-22T11:02:46.764Z,24.84
2023-05-22T11:05:37.632Z,24.83
2023-05-22T11:08:48.606Z,25.12
2023-05-22T11:11:16.894Z,24.63
2023-05-22T11:13:45.232Z,25.29
2023-05-22T11:16:13.779Z,24.09
2023-05-22T11:18:45.292Z,23.89
2023-05-22T11:21:14.563Z,23.69
2023-05-22T11:23:43.348Z,24.38
2023-05-22T11:26:26.303Z,24.43
2023-05-22T11:28:56.676Z,24.74
2023-05-22T11:31:26.473Z,25.03
2023-05-22T11:33:56.378Z,24.49
2023-05-22T11:36:25.195Z,24.36
2023-05-22T11:38:59.864Z,24.12
2023-05-22T11:41:34.063Z,24.30
2023-05-22T11:44:03.207Z,24.35
2023-05-22T11:46:31.519Z,24.08
2023-05-22T11:49:01.332Z,24.45
2023-05-22T11:51:29.757Z,24.65
2023-05-22T11:53:59.002Z,24.69
2023-05-22T11:56:27.369Z,25.00
2023-05-22T11:58:55.716Z,24.26
2023-05-22T12:01:24.080Z,24.33
2023-05-22T12:03:52.443Z,24.11
2023-05-22T12:06:22.344Z,24.39
2023-05-22T12:08:50.835Z,24.98
2023-05-22T12:11:19.136Z,24.82
2023-05-22T12:13:47.512Z,25.10
2023-05-22T12:16:23.053Z,24.68
2023-05-22T12:18:54.625Z,24.98
2023-05-22T12:21:24.367Z,24.48
2023-05-22T12:23:53.293Z,25.17
2023-05-22T12:26:21.655Z,25.08
2023-05-22T12:28:53.593Z,25.30
2023-05-22T12:31:22.878Z,25.46
2023-05-22T12:33:54.722Z,25.33
2023-05-22T12:36:35.544Z,25.23
2023-05-22T12:39:08.270Z,25.44
2023-05-22T12:41:36.705Z,25.26
2023-05-22T12:44:05.819Z,25.49
2023-05-22T12:46:35.277Z,24.68
2023-05-22T12:49:03.833Z,25.51
2023-05-22T12:51:33.938Z,26.05
2023-05-22T12:54:03.278Z,25.89
2023-05-22T12:56:32.635Z,25.95
2023-05-22T12:59:01.060Z,26.34
2023-05-22T13:01:29.503Z,26.02
2023-05-22T13:03:57.837Z,26.05
2023-05-22T13:06:27.979Z,25.79
2023-05-22T13:09:02.032Z,26.11
2023-05-22T13:11:30.325Z,25.22
2023-05-22T13:13:58.707Z,25.44
2023-05-22T13:16:27.060Z,25.31
2023-05-22T13:18:55.401Z,26.02
2023-05-22T13:21:25.195Z,26.19
2023-05-22T13:23:54.770Z,26.08
2023-05-22T13:26:24.391Z,26.36
2023-05-22T13:28:52.726Z,25.96
2023-05-22T13:31:21.651Z,25.57
2023-05-22T13:33:49.919Z,25.92
2023-05-22T13:36:19.615Z,25.98
2023-05-22T13:38:48.056Z,26.18
2023-05-22T13:41:17.724Z,26.02
2023-05-22T13:43:47.410Z,25.37
2023-05-22T13:46:15.878Z,25.74
2023-05-22T13:48:44.147Z,25.89
2023-05-22T13:51:12.414Z,25.94
2023-05-22T13:53:40.774Z,25.74
2023-05-22T13:56:09.063Z,25.36
2023-05-22T13:58:37.345Z,25.61
2023-05-22T14:01:07.113Z,25.74
2023-05-22T14:03:35.537Z,25.94
2023-05-22T14:06:03.817Z,26.23
2023-05-22T14:08:32.147Z,25.74
2023-05-22T14:11:01.026Z,26.06
2023-05-22T14:13:29.329Z,25.70
2023-05-22T14:15:57.622Z,25.56
2023-05-22T14:18:27.300Z,25.97
2023-05-22T14:20:55.645Z,26.21
2023-05-22T14:23:24.012Z,26.11
2023-05-22T14:25:52.372Z,26.17
2023-05-22T14:28:20.695Z,26.41
2023-05-22T14:30:49.036Z,26.58
2023-05-22T14:33:17.358Z,26.23
2023-05-22T14:35:48.453Z,26.44
2023-05-22T14:38:16.712Z,26.43
2023-05-22T14:40:45.032Z,26.25
2023-05-22T14:43:13.352Z,25.91
2023-05-22T14:45:41.911Z,25.97
2023-05-22T14:48:11.538Z,26.22
2023-05-22T14:50:39.892Z,26.08
2023-05-22T14:53:09.607Z,25.92
2023-05-22T14:55:38.324Z,26.07
2023-05-22T14:58:06.727Z,26.16
2023-05-22T15:00:35.008Z,26.10
2023-05-22T15:03:03.610Z,26.10
2023-05-22T15:05:32.000Z,26.17
2023-05-22T15:08:00.360Z,26.08
2023-05-22T15:10:29.996Z,25.76
2023-05-22T15:12:58.246Z,25.83
2023-05-22T15:15:26.736Z,25.67
2023-05-22T15:17:55.640Z,25.80
2023-05-22T15:20:24.017Z,25.91
2023-05-22T15:22:52.299Z,25.94
2023-05-22T15:25:20.586Z,25.71
2023-05-22T15:27:50.242Z,25.67
2023-05-22T15:30:19.623Z,25.77
2023-05-22T15:32:49.873Z,25.94
2023-05-22T15:35:18.219Z,26.13
2023-05-22T15:37:46.611Z,25.89
2023-05-22T15:40:18.270Z,25.51
2023-05-22T15:42:46.561Z,25.53
2023-05-22T15:45:16.223Z,25.82
2023-05-22T15:47:44.666Z,25.68
2023-05-22T15:50:12.956Z,25.48
2023-05-22T15:52:41.311Z,25.38
2023-05-22T15:55:10.205Z,25.69
2023-05-22T15:57:39.202Z,25.16
2023-05-22T16:00:09.354Z,25.37
2023-05-22T16:02:39.173Z,25.51
2023-05-22T16:05:07.753Z,25.52
2023-05-22T16:07:36.035Z,25.68
2023-05-22T16:10:05.665Z,25.85
2023-05-22T16:12:33.916Z,25.61
2023-05-22T16:15:03.870Z,25.76
2023-05-22T16:17:33.541Z,25.73
2023-05-22T16:20:04.715Z,25.56
2023-05-22T16:22:47.382Z,25.92
2023-05-22T16:25:18.300Z,25.52
2023-05-22T16:27:46.784Z,25.43
2023-05-22T16:30:17.264Z,25.39
2023-05-22T16:32:47.146Z,25.61
2023-05-22T16:35:19.574Z,25.52
2023-05-22T16:37:47.878Z,25.21
2023-05-22T16:40:16.187Z,25.17
2023-05-22T16:42:44.512Z,25.17
2023-05-22T16:45:13.105Z,24.93
2023-05-22T16:47:41.381Z,24.58
2023-05-22T16:50:10.209Z,24.28
2023-05-22T16:52:39.897Z,24.27
2023-05-22T16:55:09.981Z,23.83
2023-05-22T16:57:39.491Z,23.17
2023-05-22T17:00:10.993Z,22.63
2023-05-22T17:02:39.650Z,23.46
2023-05-22T17:05:09.128Z,23.30
2023-05-22T17:07:37.759Z,23.56
2023-05-22T17:10:08.997Z,23.39
2023-05-22T17:12:37.406Z,22.94
2023-05-22T17:15:06.990Z,23.08
2023-05-22T17:17:35.375Z,23.21
2023-05-22T17:20:06.206Z,22.38
2023-05-22T17:22:36.097Z,21.96
2023-05-22T17:25:04.497Z,23.06
2023-05-22T17:27:36.433Z,21.69
2023-05-22T17:30:06.954Z,21.69
2023-05-22T17:32:35.815Z,21.40
2023-05-22T17:35:06.480Z,22.11
2023-05-22T17:37:35.162Z,22.17
2023-05-22T17:40:04.138Z,22.44
2023-05-22T17:42:33.753Z,22.83
2023-05-22T17:45:02.007Z,22.49
2023-05-22T17:47:30.297Z,22.95
2023-05-22T17:49:58.634Z,22.70
2023-05-22T17:52:26.937Z,22.86
2023-05-22T17:54:56.340Z,22.40
2023-05-22T17:57:24.598Z,23.55
2023-05-22T17:59:54.240Z,23.00
2023-05-22T18:02:22.557Z,22.63
2023-05-22T18:04:50.862Z,22.38
2023-05-22T18:07:20.009Z,21.85
2023-05-22T18:09:48.366Z,21.82
2023-05-22T18:12:31.086Z,22.27
2023-05-22T18:15:01.454Z,22.44
2023-05-22T18:17:29.771Z,22.26
2023-05-22T18:19:58.027Z,21.72
2023-05-22T18:22:26.681Z,22.31
2023-05-22T18:24:54.961Z,22.16
2023-05-22T18:27:23.234Z,22.57
2023-05-22T18:29:51.871Z,22.42
2023-05-22T18:32:21.537Z,21.85
2023-05-22T18:34:49.836Z,21.60
2023-05-22T18:37:18.988Z,21.77
2023-05-22T18:39:47.446Z,22.61
2023-05-22T18:42:16.238Z,22.23
2023-05-22T18:44:45.723Z,22.35
2023-05-22T18:47:15.805Z,22.72
2023-05-22T18:49:45.848Z,22.81
2023-05-22T18:52:14.209Z,22.93
2023-05-22T18:54:42.525Z,22.27
2023-05-22T18:57:10.844Z,21.92
2023-05-22T18:59:39.270Z,22.79
2023-05-22T19:02:07.945Z,22.56
2023-05-22T19:04:36.298Z,22.53
2023-05-22T19:07:06.346Z,22.16
2023-05-22T19:09:34.625Z,22.48
2023-05-22T19:12:02.965Z,21.94
2023-05-22T19:14:31.442Z,21.34
2023-05-22T19:17:00.504Z,21.99
2023-05-22T19:19:29.025Z,22.44
2023-05-22T19:21:57.360Z,21.52
2023-05-22T19:24:28.325Z,22.04
2023-05-22T19:26:56.591Z,21.38
2023-05-22T19:29:24.908Z,20.81
2023-05-22T19:31:53.280Z,21.65
2023-05-22T19:34:21.596Z,21.76
2023-05-22T19:36:51.671Z,21.83
2023-05-22T19:39:19.991Z,21.52
2023-05-22T19:41:51.088Z,20.58
2023-05-22T19:44:19.398Z,20.76
2023-05-22T19:46:48.046Z,21.31
2023-05-22T19:49:16.494Z,21.42
2023-05-22T19:51:45.937Z,21.26
2023-05-22T19:54:14.244Z,22.02
2023-05-22T19:56:42.522Z,21.64
2023-05-22T19:59:12.151Z,21.83
2023-05-22T20:01:40.515Z,21.03
2023-05-22T20:04:08.915Z,21.21
2023-05-22T20:06:37.254Z,20.89
2023-05-22T20:09:05.969Z,20.66
2023-05-22T20:11:34.210Z,21.03
2023-05-22T20:14:03.443Z,20.85
2023-05-22T20:16:33.190Z,21.35
2023-05-22T20:19:02.475Z,21.66
2023-05-22T20:21:31.020Z,20.35
2023-05-22T20:23:59.404Z,20.98
2023-05-22T20:26:27.884Z,20.94
2023-05-22T20:28:56.281Z,21.73
2023-05-22T20:31:24.601Z,21.69
2023-05-22T20:33:54.316Z,21.31
2023-05-22T20:36:22.946Z,20.62
2023-05-22T20:38:51.276Z,21.22
2023-05-22T20:41:19.864Z,20.72
2023-05-22T20:43:48.200Z,21.25
2023-05-22T20:46:16.457Z,22.11
2023-05-22T20:48:47.002Z,21.96
2023-05-22T20:51:18.088Z,22.89
2023-05-22T20:53:46.395Z,22.20
2023-05-22T20:56:14.693Z,20.58
2023-05-22T20:58:43.217Z,20.32
2023-05-22T21:01:11.559Z,21.07
2023-05-22T21:03:39.936Z,20.82
2023-05-22T21:06:08.424Z,21.75
2023-05-22T21:08:38.005Z,21.24
2023-05-22T21:11:07.368Z,21.10
2023-05-22T21:13:35.668Z,20.74
2023-05-22T21:16:03.950Z,20.07
2023-05-22T21:18:32.211Z,21.06
2023-05-22T21:21:00.532Z,20.70
2023-05-22T21:23:28.783Z,20.37
2023-05-22T21:25:58.446Z,20.25
2023-05-22T21:28:26.868Z,19.94
2023-05-22T21:30:55.307Z,20.27
2023-05-22T21:33:23.696Z,19.55
2023-05-22T21:35:52.026Z,20.43
2023-05-22T21:38:20.278Z,20.59
2023-05-22T21:40:48.615Z,20.23
2023-05-22T21:43:18.249Z,20.67
2023-05-22T21:45:46.548Z,21.08
2023-05-22T21:48:14.836Z,20.59
2023-05-22T21:50:43.125Z,19.68
2023-05-22T21:53:11.420Z,20.47
2023-05-22T21:55:39.684Z,20.19
2023-05-22T21:58:07.965Z,19.82
2023-05-22T22:00:38.059Z,19.56
2023-05-22T22:03:06.601Z,19.87
2023-05-22T22:05:36.694Z,19.49
2023-05-22T22:08:06.071Z,19.25
2023-05-22T22:10:34.357Z,20.27
2023-05-22T22:13:03.466Z,20.49
2023-05-22T22:15:33.870Z,20.25
2023-05-22T22:18:05.218Z,20.43
2023-05-22T22:23:08.147Z,19.26
2023-05-22T22:25:36.649Z,19.60
2023-05-22T22:28:04.868Z,20.01
2023-05-22T22:30:33.181Z,20.23
2023-05-22T22:33:01.511Z,19.73
2023-05-22T22:37:59.855Z,20.49
2023-05-22T22:40:28.312Z,20.87
2023-05-22T22:42:56.573Z,20.34
2023-05-22T22:45:25.146Z,19.80
2023-05-22T22:47:56.493Z,19.20
2023-05-22T22:50:25.488Z,18.65
2023-05-22T22:52:55.585Z,19.69
2023-05-22T22:55:24.171Z,19.51
2023-05-22T22:57:53.456Z,18.53
2023-05-22T23:00:21.835Z,19.31
2023-05-22T23:02:50.271Z,19.89
2023-05-22T23:05:20.490Z,19.07
2023-05-22T23:07:49.134Z,20.13
2023-05-22T23:10:19.015Z,18.64
2023-05-22T23:12:51.176Z,18.90
2023-05-22T23:15:20.483Z,19.29
2023-05-22T23:17:52.139Z,19.15
2023-05-22T23:20:21.256Z,18.29
2023-05-22T23:22:50.498Z,18.70
2023-05-22T23:25:21.380Z,18.91
2023-05-22T23:27:50.354Z,19.10
2023-05-22T23:30:19.559Z,18.57
2023-05-22T23:32:51.796Z,18.56
2023-05-22T23:35:21.207Z,18.03
2023-05-22T23:37:50.620Z,18.69
2023-05-22T23:40:21.162Z,18.53
2023-05-22T23:42:49.952Z,19.07
2023-05-22T23:45:18.444Z,18.47
2023-05-22T23:47:48.786Z,18.59
2023-05-22T23:50:18.220Z,19.38
2023-05-22T23:52:48.452Z,18.91
2023-05-22T23:55:17.566Z,19.57
2023-05-22T23:57:47.995Z,18.45
